sensor_id;sensor_type;location;lat;lon;timestamp;P1;durP1;ratioP1;P2;durP2;ratioP2
15637;SDS011;26604;53.596;10.042;2022-10-31T00:01:06;9.55;;;6.25;;
15637;SDS011;26604;53.596;10.042;2022-10-31T00:03:36;13.77;;;7.10;;
15637;SDS011;26604;53.596;10.042;2022-10-31T00:06:03;10.45;;;6.65;;
15637;SDS011;26604;53.596;10.042;2022-10-31T00:08:30;14.07;;;7.10;;
15637;SDS011;26604;53.596;10.042;2022-10-31T00:10:56;12.43;;;7.28;;
15637;SDS011;26604;53.596;10.042;2022-10-31T00:13:23;12.57;;;7.03;;
15637;SDS011;26604;53.596;10.042;2022-10-31T00:15:50;11.13;;;7.38;;
15637;SDS011;26604;53.596;10.042;2022-10-31T00:18:18;12.07;;;7.30;;
15637;SDS011;26604;53.596;10.042;2022-10-31T00:20:45;13.13;;;7.32;;
15637;SDS011;26604;53.596;10.042;2022-10-31T00:23:12;11.02;;;6.72;;
15637;SDS011;26604;53.596;10.042;2022-10-31T00:25:39;11.93;;;7.35;;
15637;SDS011;26604;53.596;10.042;2022-10-31T00:28:06;12.98;;;6.65;;
15637;SDS011;26604;53.596;10.042;2022-10-31T00:30:35;10.98;;;6.97;;
15637;SDS011;26604;53.596;10.042;2022-10-31T00:33:02;10.40;;;7.00;;
15637;SDS011;26604;53.596;10.042;2022-10-31T00:35:31;14.30;;;8.85;;
15637;SDS011;26604;53.596;10.042;2022-10-31T00:37:58;11.00;;;7.45;;
15637;SDS011;26604;53.596;10.042;2022-10-31T00:40:24;13.05;;;6.93;;
15637;SDS011;26604;53.596;10.042;2022-10-31T00:42:51;11.02;;;7.97;;
15637;SDS011;26604;53.596;10.042;2022-10-31T00:45:18;10.80;;;7.30;;
15637;SDS011;26604;53.596;10.042;2022-10-31T00:47:45;11.90;;;7.18;;
15637;SDS011;26604;53.596;10.042;2022-10-31T00:50:12;11.07;;;7.55;;
15637;SDS011;26604;53.596;10.042;2022-10-31T00:52:40;10.75;;;6.70;;
15637;SDS011;26604;53.596;10.042;2022-10-31T00:55:07;12.20;;;7.25;;
15637;SDS011;26604;53.596;10.042;2022-10-31T00:57:34;9.63;;;6.63;;
15637;SDS011;26604;53.596;10.042;2022-10-31T01:00:00;12.52;;;6.97;;
15637;SDS011;26604;53.596;10.042;2022-10-31T01:02:27;10.80;;;7.32;;
15637;SDS011;26604;53.596;10.042;2022-10-31T01:04:54;10.48;;;7.30;;
15637;SDS011;26604;53.596;10.042;2022-10-31T01:07:21;12.00;;;6.75;;
15637;SDS011;26604;53.596;10.042;2022-10-31T01:09:49;12.65;;;7.32;;
15637;SDS011;26604;53.596;10.042;2022-10-31T01:12:16;11.15;;;7.13;;
15637;SDS011;26604;53.596;10.042;2022-10-31T01:14:43;8.85;;;6.13;;
15637;SDS011;26604;53.596;10.042;2022-10-31T01:17:10;12.10;;;7.65;;
15637;SDS011;26604;53.596;10.042;2022-10-31T01:19:37;11.55;;;7.40;;
15637;SDS011;26604;53.596;10.042;2022-10-31T01:22:04;9.82;;;7.13;;
15637;SDS011;26604;53.596;10.042;2022-10-31T01:24:31;11.90;;;7.03;;
15637;SDS011;26604;53.596;10.042;2022-10-31T01:26:59;11.57;;;6.55;;
15637;SDS011;26604;53.596;10.042;2022-10-31T01:29:26;13.43;;;6.53;;
15637;SDS011;26604;53.596;10.042;2022-10-31T01:31:53;14.60;;;7.72;;
15637;SDS011;26604;53.596;10.042;2022-10-31T01:34:19;11.50;;;6.90;;
15637;SDS011;26604;53.596;10.042;2022-10-31T01:36:46;10.60;;;6.90;;
15637;SDS011;26604;53.596;10.042;2022-10-31T01:39:16;14.68;;;6.78;;
15637;SDS011;26604;53.596;10.042;2022-10-31T01:41:45;11.70;;;6.72;;
15637;SDS011;26604;53.596;10.042;2022-10-31T01:47:19;10.70;;;6.50;;
15637;SDS011;26604;53.596;10.042;2022-10-31T01:49:53;9.98;;;5.90;;
15637;SDS011;26604;53.596;10.042;2022-10-31T01:52:23;8.90;;;6.70;;
15637;SDS011;26604;53.596;10.042;2022-10-31T01:54:54;10.75;;;6.75;;
15637;SDS011;26604;53.596;10.042;2022-10-31T01:57:24;9.77;;;6.80;;
15637;SDS011;26604;53.596;10.042;2022-10-31T01:59:54;9.52;;;6.68;;
15637;SDS011;26604;53.596;10.042;2022-10-31T02:02:23;10.85;;;6.32;;
15637;SDS011;26604;53.596;10.042;2022-10-31T02:04:53;14.18;;;7.43;;
15637;SDS011;26604;53.596;10.042;2022-10-31T02:07:23;10.82;;;6.22;;
15637;SDS011;26604;53.596;10.042;2022-10-31T02:09:52;12.73;;;7.45;;
15637;SDS011;26604;53.596;10.042;2022-10-31T02:12:21;10.02;;;6.30;;
15637;SDS011;26604;53.596;10.042;2022-10-31T02:14:48;10.55;;;6.40;;
15637;SDS011;26604;53.596;10.042;2022-10-31T02:17:16;9.23;;;6.22;;
15637;SDS011;26604;53.596;10.042;2022-10-31T02:19:45;10.55;;;5.95;;
15637;SDS011;26604;53.596;10.042;2022-10-31T02:22:20;10.98;;;6.50;;
15637;SDS011;26604;53.596;10.042;2022-10-31T02:24:58;9.35;;;6.85;;
15637;SDS011;26604;53.596;10.042;2022-10-31T02:27:43;10.35;;;6.75;;
15637;SDS011;26604;53.596;10.042;2022-10-31T02:30:26;9.18;;;6.28;;
15637;SDS011;26604;53.596;10.042;2022-10-31T02:33:06;11.10;;;6.53;;
15637;SDS011;26604;53.596;10.042;2022-10-31T02:35:44;9.05;;;6.30;;
15637;SDS011;26604;53.596;10.042;2022-10-31T02:38:21;9.02;;;6.30;;
15637;SDS011;26604;53.596;10.042;2022-10-31T02:40:57;8.73;;;6.30;;
15637;SDS011;26604;53.596;10.042;2022-10-31T02:43:32;11.45;;;6.20;;
15637;SDS011;26604;53.596;10.042;2022-10-31T02:46:07;8.05;;;5.40;;
15637;SDS011;26604;53.596;10.042;2022-10-31T02:48:41;9.95;;;6.10;;
15637;SDS011;26604;53.596;10.042;2022-10-31T02:51:11;9.70;;;5.70;;
15637;SDS011;26604;53.596;10.042;2022-10-31T02:53:38;10.05;;;6.20;;
15637;SDS011;26604;53.596;10.042;2022-10-31T02:56:06;9.68;;;5.80;;
15637;SDS011;26604;53.596;10.042;2022-10-31T02:58:38;9.93;;;5.93;;
15637;SDS011;26604;53.596;10.042;2022-10-31T03:01:11;10.57;;;5.95;;
15637;SDS011;26604;53.596;10.042;2022-10-31T03:04:01;9.15;;;6.18;;
15637;SDS011;26604;53.596;10.042;2022-10-31T03:06:44;9.73;;;5.95;;
15637;SDS011;26604;53.596;10.042;2022-10-31T03:09:17;7.65;;;6.20;;
15637;SDS011;26604;53.596;10.042;2022-10-31T03:11:51;8.63;;;6.00;;
15637;SDS011;26604;53.596;10.042;2022-10-31T03:14:24;9.50;;;6.13;;
15637;SDS011;26604;53.596;10.042;2022-10-31T03:16:57;8.40;;;5.57;;
15637;SDS011;26604;53.596;10.042;2022-10-31T03:19:31;9.23;;;5.85;;
15637;SDS011;26604;53.596;10.042;2022-10-31T03:22:01;9.38;;;5.38;;
15637;SDS011;26604;53.596;10.042;2022-10-31T03:24:31;9.82;;;5.40;;
15637;SDS011;26604;53.596;10.042;2022-10-31T03:27:01;8.40;;;5.93;;
15637;SDS011;26604;53.596;10.042;2022-10-31T03:29:33;9.05;;;5.60;;
15637;SDS011;26604;53.596;10.042;2022-10-31T03:32:03;8.95;;;5.90;;
15637;SDS011;26604;53.596;10.042;2022-10-31T03:34:35;8.27;;;5.95;;
15637;SDS011;26604;53.596;10.042;2022-10-31T03:37:06;8.00;;;5.50;;
15637;SDS011;26604;53.596;10.042;2022-10-31T03:39:36;8.43;;;5.70;;
15637;SDS011;26604;53.596;10.042;2022-10-31T03:42:05;8.32;;;5.43;;
15637;SDS011;26604;53.596;10.042;2022-10-31T03:44:37;7.20;;;5.68;;
15637;SDS011;26604;53.596;10.042;2022-10-31T03:47:07;9.27;;;5.68;;
15637;SDS011;26604;53.596;10.042;2022-10-31T03:49:35;8.63;;;5.45;;
15637;SDS011;26604;53.596;10.042;2022-10-31T03:52:05;9.38;;;6.32;;
15637;SDS011;26604;53.596;10.042;2022-10-31T03:54:40;7.78;;;5.88;;
15637;SDS011;26604;53.596;10.042;2022-10-31T03:57:11;9.00;;;5.78;;
15637;SDS011;26604;53.596;10.042;2022-10-31T03:59:44;8.15;;;5.60;;
15637;SDS011;26604;53.596;10.042;2022-10-31T04:02:14;9.48;;;5.20;;
15637;SDS011;26604;53.596;10.042;2022-10-31T04:04:45;9.10;;;5.75;;
15637;SDS011;26604;53.596;10.042;2022-10-31T04:07:13;8.15;;;5.30;;
15637;SDS011;26604;53.596;10.042;2022-10-31T04:09:43;10.05;;;6.00;;
15637;SDS011;26604;53.596;10.042;2022-10-31T04:12:13;9.05;;;5.47;;
15637;SDS011;26604;53.596;10.042;2022-10-31T04:14:42;8.75;;;5.32;;
15637;SDS011;26604;53.596;10.042;2022-10-31T04:17:12;8.55;;;5.28;;
15637;SDS011;26604;53.596;10.042;2022-10-31T04:19:42;9.82;;;5.40;;
15637;SDS011;26604;53.596;10.042;2022-10-31T04:22:10;8.90;;;5.63;;
15637;SDS011;26604;53.596;10.042;2022-10-31T04:24:37;8.75;;;4.95;;
15637;SDS011;26604;53.596;10.042;2022-10-31T04:27:06;8.60;;;5.13;;
15637;SDS011;26604;53.596;10.042;2022-10-31T04:29:33;8.82;;;5.45;;
15637;SDS011;26604;53.596;10.042;2022-10-31T04:32:00;11.90;;;5.80;;
15637;SDS011;26604;53.596;10.042;2022-10-31T04:34:27;6.65;;;5.13;;
15637;SDS011;26604;53.596;10.042;2022-10-31T04:36:55;9.38;;;4.97;;
15637;SDS011;26604;53.596;10.042;2022-10-31T04:39:22;9.75;;;5.20;;
15637;SDS011;26604;53.596;10.042;2022-10-31T04:41:49;7.32;;;5.10;;
15637;SDS011;26604;53.596;10.042;2022-10-31T04:44:16;8.13;;;4.88;;
15637;SDS011;26604;53.596;10.042;2022-10-31T04:46:43;7.00;;;5.05;;
15637;SDS011;26604;53.596;10.042;2022-10-31T04:49:09;8.95;;;5.00;;
15637;SDS011;26604;53.596;10.042;2022-10-31T04:51:36;9.20;;;5.00;;
15637;SDS011;26604;53.596;10.042;2022-10-31T04:54:05;7.47;;;4.97;;
15637;SDS011;26604;53.596;10.042;2022-10-31T04:56:31;7.93;;;5.00;;
15637;SDS011;26604;53.596;10.042;2022-10-31T04:58:58;8.10;;;5.30;;
15637;SDS011;26604;53.596;10.042;2022-10-31T05:01:25;11.32;;;5.15;;
15637;SDS011;26604;53.596;10.042;2022-10-31T05:03:52;10.57;;;5.22;;
15637;SDS011;26604;53.596;10.042;2022-10-31T05:06:19;9.40;;;4.53;;
15637;SDS011;26604;53.596;10.042;2022-10-31T05:08:46;7.70;;;4.95;;
15637;SDS011;26604;53.596;10.042;2022-10-31T05:11:14;6.90;;;4.90;;
15637;SDS011;26604;53.596;10.042;2022-10-31T05:13:41;9.73;;;5.38;;
15637;SDS011;26604;53.596;10.042;2022-10-31T05:16:08;9.52;;;5.13;;
15637;SDS011;26604;53.596;10.042;2022-10-31T05:18:35;6.63;;;4.15;;
15637;SDS011;26604;53.596;10.042;2022-10-31T05:21:02;6.93;;;4.70;;
15637;SDS011;26604;53.596;10.042;2022-10-31T05:23:28;8.20;;;4.82;;
15637;SDS011;26604;53.596;10.042;2022-10-31T05:25:55;8.30;;;5.20;;
15637;SDS011;26604;53.596;10.042;2022-10-31T05:28:23;7.50;;;5.00;;
15637;SDS011;26604;53.596;10.042;2022-10-31T05:30:51;9.15;;;4.93;;
15637;SDS011;26604;53.596;10.042;2022-10-31T05:33:17;6.85;;;4.78;;
15637;SDS011;26604;53.596;10.042;2022-10-31T05:35:44;7.40;;;4.72;;
15637;SDS011;26604;53.596;10.042;2022-10-31T05:38:11;7.85;;;4.93;;
15637;SDS011;26604;53.596;10.042;2022-10-31T05:40:38;7.30;;;4.63;;
15637;SDS011;26604;53.596;10.042;2022-10-31T05:43:05;7.18;;;4.93;;
15637;SDS011;26604;53.596;10.042;2022-10-31T05:45:33;9.15;;;4.60;;
15637;SDS011;26604;53.596;10.042;2022-10-31T05:48:00;7.43;;;4.97;;
15637;SDS011;26604;53.596;10.042;2022-10-31T05:50:29;7.68;;;4.78;;
15637;SDS011;26604;53.596;10.042;2022-10-31T05:52:57;5.50;;;4.65;;
15637;SDS011;26604;53.596;10.042;2022-10-31T05:55:25;7.35;;;4.80;;
15637;SDS011;26604;53.596;10.042;2022-10-31T05:57:53;7.47;;;4.57;;
15637;SDS011;26604;53.596;10.042;2022-10-31T06:00:20;7.10;;;4.18;;
15637;SDS011;26604;53.596;10.042;2022-10-31T06:02:49;8.98;;;4.68;;
15637;SDS011;26604;53.596;10.042;2022-10-31T06:05:23;10.00;;;4.45;;
15637;SDS011;26604;53.596;10.042;2022-10-31T06:07:50;8.07;;;4.22;;
15637;SDS011;26604;53.596;10.042;2022-10-31T06:10:16;6.88;;;4.72;;
15637;SDS011;26604;53.596;10.042;2022-10-31T06:12:44;6.35;;;4.28;;
15637;SDS011;26604;53.596;10.042;2022-10-31T06:15:11;6.45;;;4.35;;
15637;SDS011;26604;53.596;10.042;2022-10-31T06:17:38;9.15;;;4.60;;
15637;SDS011;26604;53.596;10.042;2022-10-31T06:20:07;7.60;;;4.82;;
15637;SDS011;26604;53.596;10.042;2022-10-31T06:22:34;5.90;;;4.50;;
15637;SDS011;26604;53.596;10.042;2022-10-31T06:25:01;6.32;;;4.28;;
15637;SDS011;26604;53.596;10.042;2022-10-31T06:27:28;8.85;;;4.55;;
15637;SDS011;26604;53.596;10.042;2022-10-31T06:29:55;8.88;;;4.95;;
15637;SDS011;26604;53.596;10.042;2022-10-31T06:32:22;9.18;;;4.35;;
15637;SDS011;26604;53.596;10.042;2022-10-31T06:34:49;9.52;;;4.78;;
15637;SDS011;26604;53.596;10.042;2022-10-31T06:37:17;9.20;;;4.57;;
15637;SDS011;26604;53.596;10.042;2022-10-31T06:39:44;9.43;;;4.32;;
15637;SDS011;26604;53.596;10.042;2022-10-31T06:42:10;6.47;;;4.38;;
15637;SDS011;26604;53.596;10.042;2022-10-31T06:44:37;10.20;;;4.63;;
15637;SDS011;26604;53.596;10.042;2022-10-31T06:47:05;7.43;;;4.53;;
15637;SDS011;26604;53.596;10.042;2022-10-31T06:49:32;7.30;;;4.97;;
15637;SDS011;26604;53.596;10.042;2022-10-31T06:51:58;7.18;;;5.05;;
15637;SDS011;26604;53.596;10.042;2022-10-31T06:54:29;8.43;;;4.60;;
15637;SDS011;26604;53.596;10.042;2022-10-31T06:56:56;7.25;;;4.50;;
15637;SDS011;26604;53.596;10.042;2022-10-31T06:59:22;8.48;;;4.28;;
15637;SDS011;26604;53.596;10.042;2022-10-31T07:01:50;12.52;;;4.80;;
15637;SDS011;26604;53.596;10.042;2022-10-31T07:04:17;7.93;;;4.15;;
15637;SDS011;26604;53.596;10.042;2022-10-31T07:06:44;9.57;;;5.15;;
15637;SDS011;26604;53.596;10.042;2022-10-31T07:09:10;7.57;;;4.47;;
15637;SDS011;26604;53.596;10.042;2022-10-31T07:11:39;9.02;;;4.30;;
15637;SDS011;26604;53.596;10.042;2022-10-31T07:14:06;7.82;;;4.57;;
15637;SDS011;26604;53.596;10.042;2022-10-31T07:16:32;6.03;;;4.28;;
15637;SDS011;26604;53.596;10.042;2022-10-31T07:18:59;7.68;;;4.13;;
15637;SDS011;26604;53.596;10.042;2022-10-31T07:21:26;7.18;;;4.30;;
15637;SDS011;26604;53.596;10.042;2022-10-31T07:23:53;5.03;;;3.88;;
15637;SDS011;26604;53.596;10.042;2022-10-31T07:26:20;5.90;;;4.15;;
15637;SDS011;26604;53.596;10.042;2022-10-31T07:28:48;5.88;;;4.03;;
15637;SDS011;26604;53.596;10.042;2022-10-31T07:31:15;8.13;;;4.18;;
15637;SDS011;26604;53.596;10.042;2022-10-31T07:33:41;5.32;;;3.63;;
15637;SDS011;26604;53.596;10.042;2022-10-31T07:36:08;8.90;;;4.32;;
15637;SDS011;26604;53.596;10.042;2022-10-31T07:38:35;7.47;;;3.72;;
15637;SDS011;26604;53.596;10.042;2022-10-31T07:41:02;7.47;;;4.05;;
15637;SDS011;26604;53.596;10.042;2022-10-31T07:43:29;7.47;;;3.78;;
15637;SDS011;26604;53.596;10.042;2022-10-31T07:45:57;6.45;;;4.00;;
15637;SDS011;26604;53.596;10.042;2022-10-31T07:48:24;6.88;;;4.03;;
15637;SDS011;26604;53.596;10.042;2022-10-31T07:50:50;4.72;;;4.03;;
15637;SDS011;26604;53.596;10.042;2022-10-31T07:53:17;8.80;;;4.72;;
15637;SDS011;26604;53.596;10.042;2022-10-31T07:55:44;7.40;;;4.05;;
15637;SDS011;26604;53.596;10.042;2022-10-31T07:58:12;6.00;;;4.47;;
15637;SDS011;26604;53.596;10.042;2022-10-31T08:00:40;7.13;;;4.40;;
15637;SDS011;26604;53.596;10.042;2022-10-31T08:03:12;5.97;;;4.18;;
15637;SDS011;26604;53.596;10.042;2022-10-31T08:05:40;7.15;;;4.18;;
15637;SDS011;26604;53.596;10.042;2022-10-31T08:08:07;7.18;;;4.25;;
15637;SDS011;26604;53.596;10.042;2022-10-31T08:10:34;6.53;;;4.35;;
15637;SDS011;26604;53.596;10.042;2022-10-31T08:13:02;6.15;;;4.35;;
15637;SDS011;26604;53.596;10.042;2022-10-31T08:15:30;8.88;;;4.15;;
15637;SDS011;26604;53.596;10.042;2022-10-31T08:17:59;8.13;;;4.22;;
15637;SDS011;26604;53.596;10.042;2022-10-31T08:20:31;7.40;;;3.83;;
15637;SDS011;26604;53.596;10.042;2022-10-31T08:22:59;7.05;;;4.40;;
15637;SDS011;26604;53.596;10.042;2022-10-31T08:25:27;7.00;;;3.92;;
15637;SDS011;26604;53.596;10.042;2022-10-31T08:27:56;6.03;;;3.80;;
15637;SDS011;26604;53.596;10.042;2022-10-31T08:30:24;9.18;;;4.20;;
15637;SDS011;26604;53.596;10.042;2022-10-31T08:32:58;6.05;;;3.72;;
15637;SDS011;26604;53.596;10.042;2022-10-31T08:35:27;7.35;;;4.07;;
15637;SDS011;26604;53.596;10.042;2022-10-31T08:37:55;7.40;;;4.50;;
15637;SDS011;26604;53.596;10.042;2022-10-31T08:40:23;7.25;;;4.25;;
15637;SDS011;26604;53.596;10.042;2022-10-31T08:42:55;5.53;;;4.10;;
15637;SDS011;26604;53.596;10.042;2022-10-31T08:45:23;6.15;;;3.78;;
15637;SDS011;26604;53.596;10.042;2022-10-31T08:47:50;6.10;;;3.88;;
15637;SDS011;26604;53.596;10.042;2022-10-31T08:50:17;5.20;;;3.78;;
15637;SDS011;26604;53.596;10.042;2022-10-31T08:52:44;6.75;;;3.80;;
15637;SDS011;26604;53.596;10.042;2022-10-31T08:55:12;7.05;;;4.28;;
15637;SDS011;26604;53.596;10.042;2022-10-31T08:57:39;5.53;;;3.72;;
15637;SDS011;26604;53.596;10.042;2022-10-31T09:00:06;7.55;;;4.15;;
15637;SDS011;26604;53.596;10.042;2022-10-31T09:02:34;6.20;;;3.58;;
15637;SDS011;26604;53.596;10.042;2022-10-31T09:05:02;7.50;;;4.18;;
15637;SDS011;26604;53.596;10.042;2022-10-31T09:07:29;7.05;;;3.92;;
15637;SDS011;26604;53.596;10.042;2022-10-31T09:09:56;4.63;;;3.22;;
15637;SDS011;26604;53.596;10.042;2022-10-31T09:12:24;9.40;;;4.03;;
15637;SDS011;26604;53.596;10.042;2022-10-31T09:14:51;7.65;;;4.00;;
15637;SDS011;26604;53.596;10.042;2022-10-31T09:17:17;8.45;;;4.28;;
15637;SDS011;26604;53.596;10.042;2022-10-31T09:19:44;5.70;;;3.55;;
15637;SDS011;26604;53.596;10.042;2022-10-31T09:22:13;6.97;;;4.40;;
15637;SDS011;26604;53.596;10.042;2022-10-31T09:24:41;7.18;;;4.07;;
15637;SDS011;26604;53.596;10.042;2022-10-31T09:27:07;6.32;;;3.92;;
15637;SDS011;26604;53.596;10.042;2022-10-31T09:29:36;6.72;;;3.65;;
15637;SDS011;26604;53.596;10.042;2022-10-31T09:32:03;7.03;;;4.03;;
15637;SDS011;26604;53.596;10.042;2022-10-31T09:34:30;7.80;;;3.30;;
15637;SDS011;26604;53.596;10.042;2022-10-31T09:36:57;7.72;;;3.53;;
15637;SDS011;26604;53.596;10.042;2022-10-31T09:39:23;5.45;;;3.45;;
15637;SDS011;26604;53.596;10.042;2022-10-31T09:41:55;6.18;;;3.92;;
15637;SDS011;26604;53.596;10.042;2022-10-31T09:44:32;6.70;;;3.08;;
15637;SDS011;26604;53.596;10.042;2022-10-31T09:47:09;7.38;;;3.75;;
15637;SDS011;26604;53.596;10.042;2022-10-31T09:49:48;8.68;;;3.72;;
15637;SDS011;26604;53.596;10.042;2022-10-31T09:52:28;6.60;;;3.30;;
15637;SDS011;26604;53.596;10.042;2022-10-31T09:54:58;8.25;;;3.40;;
15637;SDS011;26604;53.596;10.042;2022-10-31T09:57:29;4.82;;;3.20;;
15637;SDS011;26604;53.596;10.042;2022-10-31T10:00:00;6.22;;;3.08;;
15637;SDS011;26604;53.596;10.042;2022-10-31T10:02:30;6.90;;;3.38;;
15637;SDS011;26604;53.596;10.042;2022-10-31T10:05:03;7.35;;;3.30;;
15637;SDS011;26604;53.596;10.042;2022-10-31T10:07:35;4.45;;;3.00;;
15637;SDS011;26604;53.596;10.042;2022-10-31T10:10:12;6.78;;;2.97;;
15637;SDS011;26604;53.596;10.042;2022-10-31T10:12:48;6.30;;;3.08;;
15637;SDS011;26604;53.596;10.042;2022-10-31T10:15:36;6.55;;;2.83;;
15637;SDS011;26604;53.596;10.042;2022-10-31T10:18:12;6.55;;;2.90;;
15637;SDS011;26604;53.596;10.042;2022-10-31T10:20:51;4.75;;;2.88;;
15637;SDS011;26604;53.596;10.042;2022-10-31T10:23:34;10.80;;;3.75;;
15637;SDS011;26604;53.596;10.042;2022-10-31T10:26:10;12.05;;;4.07;;
15637;SDS011;26604;53.596;10.042;2022-10-31T10:28:43;11.90;;;3.70;;
15637;SDS011;26604;53.596;10.042;2022-10-31T10:31:16;12.63;;;4.00;;
15637;SDS011;26604;53.596;10.042;2022-10-31T10:33:47;9.85;;;4.20;;
15637;SDS011;26604;53.596;10.042;2022-10-31T10:36:27;15.88;;;4.45;;
15637;SDS011;26604;53.596;10.042;2022-10-31T10:39:02;19.77;;;4.45;;
15637;SDS011;26604;53.596;10.042;2022-10-31T10:41:33;13.82;;;4.25;;
15637;SDS011;26604;53.596;10.042;2022-10-31T10:44:00;8.18;;;4.10;;
15637;SDS011;26604;53.596;10.042;2022-10-31T10:46:32;10.27;;;4.05;;
15637;SDS011;26604;53.596;10.042;2022-10-31T10:49:25;15.50;;;4.60;;
15637;SDS011;26604;53.596;10.042;2022-10-31T10:51:59;11.50;;;3.55;;
15637;SDS011;26604;53.596;10.042;2022-10-31T10:54:36;7.78;;;3.97;;
15637;SDS011;26604;53.596;10.042;2022-10-31T10:57:27;7.32;;;3.80;;
15637;SDS011;26604;53.596;10.042;2022-10-31T11:00:12;6.15;;;3.78;;
15637;SDS011;26604;53.596;10.042;2022-10-31T11:02:44;7.90;;;3.58;;
15637;SDS011;26604;53.596;10.042;2022-10-31T11:05:13;11.85;;;3.70;;
15637;SDS011;26604;53.596;10.042;2022-10-31T11:07:46;9.82;;;3.92;;
15637;SDS011;26604;53.596;10.042;2022-10-31T11:10:14;7.63;;;4.05;;
15637;SDS011;26604;53.596;10.042;2022-10-31T11:12:42;9.68;;;3.47;;
15637;SDS011;26604;53.596;10.042;2022-10-31T11:15:17;6.60;;;3.95;;
15637;SDS011;26604;53.596;10.042;2022-10-31T11:17:48;11.55;;;3.70;;
15637;SDS011;26604;53.596;10.042;2022-10-31T11:20:24;10.32;;;4.40;;
15637;SDS011;26604;53.596;10.042;2022-10-31T11:23:00;9.13;;;3.28;;
15637;SDS011;26604;53.596;10.042;2022-10-31T11:25:30;8.80;;;3.15;;
15637;SDS011;26604;53.596;10.042;2022-10-31T11:28:00;7.82;;;3.40;;
15637;SDS011;26604;53.596;10.042;2022-10-31T11:30:28;6.35;;;2.80;;
15637;SDS011;26604;53.596;10.042;2022-10-31T11:32:57;4.30;;;2.85;;
15637;SDS011;26604;53.596;10.042;2022-10-31T11:35:24;6.00;;;2.92;;
15637;SDS011;26604;53.596;10.042;2022-10-31T11:37:52;7.30;;;3.10;;
15637;SDS011;26604;53.596;10.042;2022-10-31T11:40:24;6.45;;;2.80;;
15637;SDS011;26604;53.596;10.042;2022-10-31T11:42:53;15.18;;;3.40;;
15637;SDS011;26604;53.596;10.042;2022-10-31T11:45:27;6.63;;;3.22;;
15637;SDS011;26604;53.596;10.042;2022-10-31T11:47:59;6.07;;;3.00;;
15637;SDS011;26604;53.596;10.042;2022-10-31T11:50:29;7.35;;;3.30;;
15637;SDS011;26604;53.596;10.042;2022-10-31T11:53:00;11.40;;;2.75;;
15637;SDS011;26604;53.596;10.042;2022-10-31T11:55:31;6.82;;;2.72;;
15637;SDS011;26604;53.596;10.042;2022-10-31T11:57:59;5.53;;;2.75;;
15637;SDS011;26604;53.596;10.042;2022-10-31T12:00:28;5.03;;;2.75;;
15637;SDS011;26604;53.596;10.042;2022-10-31T12:03:11;8.23;;;3.17;;
15637;SDS011;26604;53.596;10.042;2022-10-31T12:05:42;7.65;;;3.00;;
15637;SDS011;26604;53.596;10.042;2022-10-31T12:08:12;13.43;;;2.90;;
15637;SDS011;26604;53.596;10.042;2022-10-31T12:10:42;5.95;;;2.47;;
15637;SDS011;26604;53.596;10.042;2022-10-31T12:13:20;9.73;;;2.70;;
15637;SDS011;26604;53.596;10.042;2022-10-31T12:15:57;8.10;;;2.97;;
15637;SDS011;26604;53.596;10.042;2022-10-31T12:18:44;5.25;;;2.90;;
15637;SDS011;26604;53.596;10.042;2022-10-31T12:21:27;8.55;;;2.55;;
15637;SDS011;26604;53.596;10.042;2022-10-31T12:24:06;5.85;;;2.75;;
15637;SDS011;26604;53.596;10.042;2022-10-31T12:26:39;4.78;;;2.70;;
15637;SDS011;26604;53.596;10.042;2022-10-31T12:29:15;4.18;;;2.58;;
15637;SDS011;26604;53.596;10.042;2022-10-31T12:31:57;5.45;;;2.78;;
15637;SDS011;26604;53.596;10.042;2022-10-31T12:34:45;4.65;;;2.72;;
15637;SDS011;26604;53.596;10.042;2022-10-31T12:37:28;4.45;;;2.83;;
15637;SDS011;26604;53.596;10.042;2022-10-31T12:40:09;5.55;;;2.75;;
15637;SDS011;26604;53.596;10.042;2022-10-31T12:42:57;5.78;;;2.70;;
15637;SDS011;26604;53.596;10.042;2022-10-31T12:45:45;4.60;;;2.50;;
15637;SDS011;26604;53.596;10.042;2022-10-31T12:51:11;8.18;;;2.65;;
15637;SDS011;26604;53.596;10.042;2022-10-31T12:53:48;4.00;;;2.75;;
15637;SDS011;26604;53.596;10.042;2022-10-31T12:56:25;4.63;;;2.83;;
15637;SDS011;26604;53.596;10.042;2022-10-31T12:59:00;4.93;;;2.92;;
15637;SDS011;26604;53.596;10.042;2022-10-31T13:01:32;3.58;;;2.80;;
15637;SDS011;26604;53.596;10.042;2022-10-31T13:04:04;5.53;;;3.03;;
15637;SDS011;26604;53.596;10.042;2022-10-31T13:06:38;4.35;;;2.50;;
15637;SDS011;26604;53.596;10.042;2022-10-31T13:09:11;3.97;;;2.85;;
15637;SDS011;26604;53.596;10.042;2022-10-31T13:11:42;6.38;;;2.63;;
15637;SDS011;26604;53.596;10.042;2022-10-31T13:14:14;7.00;;;3.50;;
15637;SDS011;26604;53.596;10.042;2022-10-31T13:16:55;5.68;;;3.15;;
15637;SDS011;26604;53.596;10.042;2022-10-31T13:19:25;7.28;;;3.22;;
15637;SDS011;26604;53.596;10.042;2022-10-31T13:21:59;5.25;;;3.15;;
15637;SDS011;26604;53.596;10.042;2022-10-31T13:24:33;6.53;;;2.97;;
15637;SDS011;26604;53.596;10.042;2022-10-31T13:27:09;7.88;;;3.47;;
15637;SDS011;26604;53.596;10.042;2022-10-31T13:29:41;8.20;;;2.90;;
15637;SDS011;26604;53.596;10.042;2022-10-31T13:32:13;6.05;;;3.38;;
15637;SDS011;26604;53.596;10.042;2022-10-31T13:34:40;5.32;;;3.38;;
15637;SDS011;26604;53.596;10.042;2022-10-31T13:37:14;6.25;;;2.97;;
15637;SDS011;26604;53.596;10.042;2022-10-31T13:39:51;6.30;;;3.58;;
15637;SDS011;26604;53.596;10.042;2022-10-31T13:42:34;5.18;;;3.20;;
15637;SDS011;26604;53.596;10.042;2022-10-31T13:45:13;6.32;;;3.72;;
15637;SDS011;26604;53.596;10.042;2022-10-31T13:47:54;7.72;;;3.55;;
15637;SDS011;26604;53.596;10.042;2022-10-31T13:50:23;7.72;;;3.55;;
15637;SDS011;26604;53.596;10.042;2022-10-31T13:52:52;4.15;;;2.80;;
15637;SDS011;26604;53.596;10.042;2022-10-31T13:55:37;6.22;;;3.22;;
15637;SDS011;26604;53.596;10.042;2022-10-31T13:58:19;4.45;;;2.75;;
15637;SDS011;26604;53.596;10.042;2022-10-31T14:00:57;5.40;;;2.90;;
15637;SDS011;26604;53.596;10.042;2022-10-31T14:03:31;4.97;;;3.10;;
15637;SDS011;26604;53.596;10.042;2022-10-31T14:06:01;6.90;;;3.05;;
15637;SDS011;26604;53.596;10.042;2022-10-31T14:08:30;6.07;;;2.90;;
15637;SDS011;26604;53.596;10.042;2022-10-31T14:11:01;8.50;;;3.60;;
15637;SDS011;26604;53.596;10.042;2022-10-31T14:13:29;5.65;;;3.03;;
15637;SDS011;26604;53.596;10.042;2022-10-31T14:16:03;4.57;;;3.03;;
15637;SDS011;26604;53.596;10.042;2022-10-31T14:18:33;7.30;;;3.28;;
15637;SDS011;26604;53.596;10.042;2022-10-31T14:21:12;6.07;;;3.60;;
15637;SDS011;26604;53.596;10.042;2022-10-31T14:23:42;4.38;;;3.15;;
15637;SDS011;26604;53.596;10.042;2022-10-31T14:26:19;5.85;;;3.40;;
15637;SDS011;26604;53.596;10.042;2022-10-31T14:28:58;5.13;;;2.85;;
15637;SDS011;26604;53.596;10.042;2022-10-31T14:31:29;7.20;;;3.00;;
15637;SDS011;26604;53.596;10.042;2022-10-31T14:34:00;4.82;;;3.38;;
15637;SDS011;26604;53.596;10.042;2022-10-31T14:36:33;5.55;;;2.92;;
15637;SDS011;26604;53.596;10.042;2022-10-31T14:39:09;4.93;;;2.78;;
15637;SDS011;26604;53.596;10.042;2022-10-31T14:41:45;6.28;;;3.00;;
15637;SDS011;26604;53.596;10.042;2022-10-31T14:47:14;4.22;;;2.97;;
15637;SDS011;26604;53.596;10.042;2022-10-31T14:49:57;4.30;;;3.05;;
15637;SDS011;26604;53.596;10.042;2022-10-31T14:52:47;3.88;;;2.90;;
15637;SDS011;26604;53.596;10.042;2022-10-31T14:55:17;3.67;;;2.67;;
15637;SDS011;26604;53.596;10.042;2022-10-31T14:57:47;4.15;;;2.95;;
15637;SDS011;26604;53.596;10.042;2022-10-31T15:00:17;4.95;;;2.75;;